sensor_id;sensor_type;location;lat;lon;timestamp;pressure;altitude;pressure_sealevel;temperature;humidity
25156;BME280;21913;52.456;13.634;2022-08-07T00:03:20;101322.50;;;22.30;62.08
25156;BME280;21913;52.456;13.634;2022-08-07T00:08:21;101326.91;;;22.29;62.04
25156;BME280;21913;52.456;13.634;2022-08-07T00:13:23;101326.91;;;22.29;61.81
25156;BME280;21913;52.456;13.634;2022-08-07T00:18:25;101324.28;;;22.28;62.19
25156;BME280;21913;52.456;13.634;2022-08-07T00:23:28;101323.44;;;22.27;61.99
25156;BME280;21913;52.456;13.634;2022-08-07T00:28:30;101326.06;;;22.27;62.14
25156;BME280;21913;52.456;13.634;2022-08-07T00:33:32;101314.72;;;22.25;62.26
25156;BME280;21913;52.456;13.634;2022-08-07T00:38:34;101314.72;;;22.25;62.26
25156;BME280;21913;52.456;13.634;2022-08-07T00:43:36;101311.22;;;22.23;62.27
25156;BME280;21913;52.456;13.634;2022-08-07T00:48:37;101313.88;;;22.23;62.39
25156;BME280;21913;52.456;13.634;2022-08-07T00:53:39;101313.94;;;22.22;62.58
25156;BME280;21913;52.456;13.634;2022-08-07T00:58:41;101310.44;;;22.21;62.40
25156;BME280;21913;52.456;13.634;2022-08-07T01:03:42;101309.56;;;22.21;62.44
25156;BME280;21913;52.456;13.634;2022-08-07T01:08:44;101307.84;;;22.20;62.60
25156;BME280;21913;52.456;13.634;2022-08-07T01:13:46;101306.13;;;22.19;62.52
25156;BME280;21913;52.456;13.634;2022-08-07T01:18:48;101303.50;;;22.19;62.57
25156;BME280;21913;52.456;13.634;2022-08-07T01:23:50;101299.09;;;22.18;62.66
25156;BME280;21913;52.456;13.634;2022-08-07T01:28:52;101295.59;;;22.17;62.51
25156;BME280;21913;52.456;13.634;2022-08-07T01:33:57;101299.16;;;22.16;62.72
25156;BME280;21913;52.456;13.634;2022-08-07T01:39:03;101299.16;;;22.16;62.57
25156;BME280;21913;52.456;13.634;2022-08-07T01:44:05;101290.44;;;22.14;62.85
25156;BME280;21913;52.456;13.634;2022-08-07T01:49:09;101286.94;;;22.14;62.74
25156;BME280;21913;52.456;13.634;2022-08-07T01:54:12;101283.44;;;22.13;62.71
25156;BME280;21913;52.456;13.634;2022-08-07T01:59:27;101277.28;;;22.13;62.78
25156;BME280;21913;52.456;13.634;2022-08-07T02:04:34;101286.94;;;22.12;62.64
25156;BME280;21913;52.456;13.634;2022-08-07T02:09:44;101283.47;;;22.12;62.73
25156;BME280;21913;52.456;13.634;2022-08-07T02:14:49;101276.47;;;22.09;63.10
25156;BME280;21913;52.456;13.634;2022-08-07T02:19:58;101280.91;;;22.09;63.05
25156;BME280;21913;52.456;13.634;2022-08-07T02:25:01;101269.50;;;22.08;62.94
25156;BME280;21913;52.456;13.634;2022-08-07T02:30:04;101275.63;;;22.07;62.92
25156;BME280;21913;52.456;13.634;2022-08-07T02:35:08;101267.72;;;22.07;63.11
25156;BME280;21913;52.456;13.634;2022-08-07T02:40:11;101270.41;;;22.05;62.87
25156;BME280;21913;52.456;13.634;2022-08-07T02:45:17;101266.94;;;22.05;62.87
25156;BME280;21913;52.456;13.634;2022-08-07T02:50:19;101263.44;;;22.04;63.11
25156;BME280;21913;52.456;13.634;2022-08-07T02:55:21;101268.75;;;22.03;63.17
25156;BME280;21913;52.456;13.634;2022-08-07T03:00:23;101261.72;;;22.03;63.27
25156;BME280;21913;52.456;13.634;2022-08-07T03:05:26;101266.13;;;22.03;63.23
25156;BME280;21913;52.456;13.634;2022-08-07T03:10:28;101261.75;;;22.02;63.32
25156;BME280;21913;52.456;13.634;2022-08-07T03:15:30;101262.63;;;22.01;63.21
25156;BME280;21913;52.456;13.634;2022-08-07T03:20:32;101267.91;;;22.01;63.34
25156;BME280;21913;52.456;13.634;2022-08-07T03:25:34;101260.91;;;22.00;63.25
25156;BME280;21913;52.456;13.634;2022-08-07T03:30:38;101256.56;;;21.99;63.14
25156;BME280;21913;52.456;13.634;2022-08-07T03:35:40;101253.97;;;21.97;63.15
25156;BME280;21913;52.456;13.634;2022-08-07T03:40:42;101255.75;;;21.97;63.20
25156;BME280;21913;52.456;13.634;2022-08-07T03:45:46;101254.00;;;21.96;63.16
25156;BME280;21913;52.456;13.634;2022-08-07T03:50:51;101262.81;;;21.95;63.35
25156;BME280;21913;52.456;13.634;2022-08-07T03:55:54;101258.41;;;21.95;63.13
25156;BME280;21913;52.456;13.634;2022-08-07T04:00:57;101262.81;;;21.95;63.49
25156;BME280;21913;52.456;13.634;2022-08-07T04:06:00;101260.22;;;21.93;63.41
25156;BME280;21913;52.456;13.634;2022-08-07T04:11:02;101259.38;;;21.93;63.15
25156;BME280;21913;52.456;13.634;2022-08-07T04:16:05;101255.88;;;21.92;63.43
25156;BME280;21913;52.456;13.634;2022-08-07T04:21:07;101255.00;;;21.92;63.22
25156;BME280;21913;52.456;13.634;2022-08-07T04:26:09;101257.66;;;21.92;63.46
25156;BME280;21913;52.456;13.634;2022-08-07T04:31:10;101258.53;;;21.91;63.65
25156;BME280;21913;52.456;13.634;2022-08-07T04:36:12;101253.31;;;21.89;63.68
25156;BME280;21913;52.456;13.634;2022-08-07T04:41:14;101257.72;;;21.89;63.38
25156;BME280;21913;52.456;13.634;2022-08-07T04:46:23;101260.41;;;21.87;63.32
25156;BME280;21913;52.456;13.634;2022-08-07T04:51:29;101263.03;;;21.87;63.33
25156;BME280;21913;52.456;13.634;2022-08-07T05:01:52;101260.44;;;21.86;63.50
25156;BME280;21913;52.456;13.634;2022-08-07T05:07:20;101260.44;;;21.86;63.45
25156;BME280;21913;52.456;13.634;2022-08-07T05:12:21;101266.59;;;21.85;63.35
25156;BME280;21913;52.456;13.634;2022-08-07T05:17:24;101272.78;;;21.84;63.61
25156;BME280;21913;52.456;13.634;2022-08-07T05:22:25;101273.66;;;21.84;63.61
25156;BME280;21913;52.456;13.634;2022-08-07T05:27:30;101273.69;;;21.83;63.46
25156;BME280;21913;52.456;13.634;2022-08-07T05:32:33;101278.09;;;21.82;63.50
25156;BME280;21913;52.456;13.634;2022-08-07T05:37:35;101289.50;;;21.83;63.71
25156;BME280;21913;52.456;13.634;2022-08-07T05:42:40;101297.47;;;21.81;63.80
25156;BME280;21913;52.456;13.634;2022-08-07T05:47:44;101296.59;;;21.81;63.96
25156;BME280;21913;52.456;13.634;2022-08-07T05:52:46;101300.94;;;21.82;63.69
25156;BME280;21913;52.456;13.634;2022-08-07T05:57:48;101298.34;;;21.80;63.59
25156;BME280;21913;52.456;13.634;2022-08-07T06:02:51;101299.25;;;21.79;63.82
25156;BME280;21913;52.456;13.634;2022-08-07T06:07:56;101298.38;;;21.78;64.05
25156;BME280;21913;52.456;13.634;2022-08-07T06:12:59;101302.78;;;21.78;63.67
25156;BME280;21913;52.456;13.634;2022-08-07T06:18:02;101306.34;;;21.77;63.82
25156;BME280;21913;52.456;13.634;2022-08-07T06:23:04;101312.47;;;21.77;64.10
25156;BME280;21913;52.456;13.634;2022-08-07T06:28:12;101308.09;;;21.76;64.21
25156;BME280;21913;52.456;13.634;2022-08-07T06:33:13;101313.38;;;21.76;64.19
25156;BME280;21913;52.456;13.634;2022-08-07T06:38:15;101307.25;;;21.76;64.12
25156;BME280;21913;52.456;13.634;2022-08-07T06:43:18;101313.44;;;21.75;64.20
25156;BME280;21913;52.456;13.634;2022-08-07T06:48:30;101302.00;;;21.74;64.26
25156;BME280;21913;52.456;13.634;2022-08-07T06:53:32;101306.41;;;21.74;64.23
25156;BME280;21913;52.456;13.634;2022-08-07T06:58:34;101310.81;;;21.73;64.14
25156;BME280;21913;52.456;13.634;2022-08-07T07:03:41;101299.41;;;21.73;64.07
25156;BME280;21913;52.456;13.634;2022-08-07T07:08:43;101302.97;;;21.72;64.24
25156;BME280;21913;52.456;13.634;2022-08-07T07:13:46;101301.19;;;21.72;64.14
25156;BME280;21913;52.456;13.634;2022-08-07T07:19:00;101297.69;;;21.72;64.22
25156;BME280;21913;52.456;13.634;2022-08-07T07:24:03;101293.34;;;21.71;64.19
25156;BME280;21913;52.456;13.634;2022-08-07T07:29:10;101291.50;;;21.73;64.20
25156;BME280;21913;52.456;13.634;2022-08-07T07:34:13;101284.47;;;21.73;64.38
25156;BME280;21913;52.456;13.634;2022-08-07T07:39:16;101273.91;;;21.75;64.45
25156;BME280;21913;52.456;13.634;2022-08-07T07:44:19;101273.00;;;21.76;64.37
25156;BME280;21913;52.456;13.634;2022-08-07T07:49:22;101275.53;;;21.79;63.93
25156;BME280;21913;52.456;13.634;2022-08-07T07:54:25;101264.09;;;21.80;63.96
25156;BME280;21913;52.456;13.634;2022-08-07T07:59:27;101264.94;;;21.82;64.25
25156;BME280;21913;52.456;13.634;2022-08-07T08:04:29;101265.75;;;21.84;64.21
25156;BME280;21913;52.456;13.634;2022-08-07T08:09:30;101256.97;;;21.84;64.10
25156;BME280;21913;52.456;13.634;2022-08-07T08:14:34;101256.06;;;21.85;64.33
25156;BME280;21913;52.456;13.634;2022-08-07T08:19:36;101256.94;;;21.85;64.33
25156;BME280;21913;52.456;13.634;2022-08-07T08:24:40;101255.13;;;21.87;64.46
25156;BME280;21913;52.456;13.634;2022-08-07T08:29:43;101260.41;;;21.87;64.61
25156;BME280;21913;52.456;13.634;2022-08-07T08:34:46;101250.78;;;21.86;64.40
25156;BME280;21913;52.456;13.634;2022-08-07T08:39:49;101251.63;;;21.87;64.30
25156;BME280;21913;52.456;13.634;2022-08-07T08:44:59;101249.88;;;21.87;64.24
25156;BME280;21913;52.456;13.634;2022-08-07T09:00:09;101239.28;;;21.89;57.39
25156;BME280;21913;52.456;13.634;2022-08-07T09:15:56;101234.22;;;21.81;53.85
25156;BME280;21913;52.456;13.634;2022-08-07T09:21:02;101241.28;;;21.79;54.30
25156;BME280;21913;52.456;13.634;2022-08-07T10:09:17;101202.25;;;21.62;59.01
25156;BME280;21913;52.456;13.634;2022-08-07T10:19:44;101190.84;;;21.62;59.43
25156;BME280;21913;52.456;13.634;2022-08-07T10:30:10;101178.66;;;21.58;60.15
25156;BME280;21913;52.456;13.634;2022-08-07T10:40:28;101180.44;;;21.57;60.55
25156;BME280;21913;52.456;13.634;2022-08-07T10:50:41;101169.97;;;21.56;60.82
25156;BME280;21913;52.456;13.634;2022-08-07T11:01:02;101156.84;;;21.54;61.49
25156;BME280;21913;52.456;13.634;2022-08-07T11:06:20;101148.94;;;21.54;61.74
25156;BME280;21913;52.456;13.634;2022-08-07T11:11:26;101143.69;;;21.52;61.83
25156;BME280;21913;52.456;13.634;2022-08-07T11:21:38;101126.19;;;21.51;61.98
25156;BME280;21913;52.456;13.634;2022-08-07T11:32:07;101126.22;;;21.50;61.53
25156;BME280;21913;52.456;13.634;2022-08-07T11:57:58;101105.25;;;21.47;62.24
25156;BME280;21913;52.456;13.634;2022-08-07T12:08:37;101094.72;;;21.47;62.57
25156;BME280;21913;52.456;13.634;2022-08-07T12:18:56;101094.75;;;21.45;62.78
25156;BME280;21913;52.456;13.634;2022-08-07T12:24:03;101086.00;;;21.45;62.51
25156;BME280;21913;52.456;13.634;2022-08-07T12:34:09;101084.28;;;21.44;63.10
25156;BME280;21913;52.456;13.634;2022-08-07T12:39:12;101081.66;;;21.44;63.24
25156;BME280;21913;52.456;13.634;2022-08-07T12:44:14;101081.69;;;21.42;62.91
25156;BME280;21913;52.456;13.634;2022-08-07T12:49:23;101070.25;;;21.43;63.25
25156;BME280;21913;52.456;13.634;2022-08-07T12:54:35;101073.81;;;21.42;63.09
25156;BME280;21913;52.456;13.634;2022-08-07T12:59:40;101072.91;;;21.42;63.50
25156;BME280;21913;52.456;13.634;2022-08-07T13:04:44;101060.66;;;21.41;63.20
25156;BME280;21913;52.456;13.634;2022-08-07T13:15:19;101055.41;;;21.41;63.36
25156;BME280;21913;52.456;13.634;2022-08-07T13:20:24;101047.56;;;21.39;63.94
25156;BME280;21913;52.456;13.634;2022-08-07T13:25:33;101052.81;;;21.39;63.94
25156;BME280;21913;52.456;13.634;2022-08-07T13:30:37;101046.69;;;21.39;64.11
25156;BME280;21913;52.456;13.634;2022-08-07T13:35:49;101035.31;;;21.38;64.25
25156;BME280;21913;52.456;13.634;2022-08-07T13:46:00;101038.84;;;21.37;64.09
25156;BME280;21913;52.456;13.634;2022-08-07T13:51:02;101031.81;;;21.38;63.95
25156;BME280;21913;52.456;13.634;2022-08-07T13:56:05;101035.31;;;21.38;64.03
25156;BME280;21913;52.456;13.634;2022-08-07T14:01:08;101026.56;;;21.36;64.29
25156;BME280;21913;52.456;13.634;2022-08-07T14:06:11;101017.78;;;21.37;64.02
25156;BME280;21913;52.456;13.634;2022-08-07T14:11:14;101016.03;;;21.38;64.17
25156;BME280;21913;52.456;13.634;2022-08-07T14:16:16;101001.13;;;21.37;64.41
25156;BME280;21913;52.456;13.634;2022-08-07T14:21:25;101010.78;;;21.36;64.17
25156;BME280;21913;52.456;13.634;2022-08-07T14:26:35;101008.13;;;21.36;64.48
25156;BME280;21913;52.456;13.634;2022-08-07T14:31:37;101010.78;;;21.36;64.53
25156;BME280;21913;52.456;13.634;2022-08-07T14:36:40;100998.53;;;21.35;64.34
25156;BME280;21913;52.456;13.634;2022-08-07T14:41:42;101002.03;;;21.36;64.71
25156;BME280;21913;52.456;13.634;2022-08-07T14:46:44;100989.78;;;21.35;64.66
25156;BME280;21913;52.456;13.634;2022-08-07T14:51:46;100993.31;;;21.34;64.45
25156;BME280;21913;52.456;13.634;2022-08-07T14:56:49;100987.13;;;21.35;64.61
25156;BME280;21913;52.456;13.634;2022-08-07T15:01:51;100986.28;;;21.34;64.78
25156;BME280;21913;52.456;13.634;2022-08-07T15:06:53;100974.91;;;21.34;64.85
25156;BME280;21913;52.456;13.634;2022-08-07T15:12:04;100987.13;;;21.35;64.63
25156;BME280;21913;52.456;13.634;2022-08-07T15:17:12;100987.13;;;21.35;65.01
25156;BME280;21913;52.456;13.634;2022-08-07T15:22:14;100983.66;;;21.34;65.03
25156;BME280;21913;52.456;13.634;2022-08-07T15:27:22;100982.84;;;21.32;64.79
25156;BME280;21913;52.456;13.634;2022-08-07T15:32:25;100976.66;;;21.33;65.01
25156;BME280;21913;52.456;13.634;2022-08-07T15:37:30;100980.22;;;21.32;65.21
25156;BME280;21913;52.456;13.634;2022-08-07T15:47:38;100960.94;;;21.32;65.18
25156;BME280;21913;52.456;13.634;2022-08-07T15:52:40;100959.16;;;21.32;65.27
25156;BME280;21913;52.456;13.634;2022-08-07T15:57:44;100954.78;;;21.31;65.38
25156;BME280;21913;52.456;13.634;2022-08-07T16:02:47;100950.41;;;21.32;65.11
25156;BME280;21913;52.456;13.634;2022-08-07T16:08:01;100955.66;;;21.32;65.34
25156;BME280;21913;52.456;13.634;2022-08-07T16:13:09;100952.13;;;21.31;65.30
25156;BME280;21913;52.456;13.634;2022-08-07T16:18:34;100947.78;;;21.30;65.27
25156;BME280;21913;52.456;13.634;2022-08-07T16:34:01;100946.00;;;21.31;65.16
25156;BME280;21913;52.456;13.634;2022-08-07T16:49:31;100942.53;;;21.30;65.52
25156;BME280;21913;52.456;13.634;2022-08-07T16:54:50;100944.25;;;21.31;65.39
25156;BME280;21913;52.456;13.634;2022-08-07T17:15:35;100940.78;;;21.29;65.96
25156;BME280;21913;52.456;13.634;2022-08-07T17:20:39;100931.16;;;21.28;65.93
25156;BME280;21913;52.456;13.634;2022-08-07T17:31:03;100932.94;;;21.27;65.78
25156;BME280;21913;52.456;13.634;2022-08-07T17:36:12;100939.97;;;21.27;65.89
25156;BME280;21913;52.456;13.634;2022-08-07T17:41:17;100939.09;;;21.26;66.00
25156;BME280;21913;52.456;13.634;2022-08-07T17:46:22;100935.63;;;21.26;66.31
25156;BME280;21913;52.456;13.634;2022-08-07T17:51:43;100930.34;;;21.26;66.45
25156;BME280;21913;52.456;13.634;2022-08-07T18:12:26;100942.69;;;21.24;66.43
25156;BME280;21913;52.456;13.634;2022-08-07T18:17:33;100936.56;;;21.23;66.33
25156;BME280;21913;52.456;13.634;2022-08-07T18:22:37;100936.56;;;21.23;66.36
25156;BME280;21913;52.456;13.634;2022-08-07T18:38:32;100955.03;;;21.22;66.77
25156;BME280;21913;52.456;13.634;2022-08-07T18:49:31;100969.06;;;21.22;66.95
25156;BME280;21913;52.456;13.634;2022-08-07T19:20:09;101002.47;;;21.19;67.10
25156;BME280;21913;52.456;13.634;2022-08-07T19:25:12;101005.97;;;21.19;67.30
25156;BME280;21913;52.456;13.634;2022-08-07T19:30:14;101018.25;;;21.19;67.23
25156;BME280;21913;52.456;13.634;2022-08-07T19:35:17;101023.53;;;21.19;67.53
25156;BME280;21913;52.456;13.634;2022-08-07T19:40:21;101028.78;;;21.19;67.62
25156;BME280;21913;52.456;13.634;2022-08-07T19:45:24;101026.22;;;21.17;67.61
25156;BME280;21913;52.456;13.634;2022-08-07T19:50:26;101026.22;;;21.17;67.50
25156;BME280;21913;52.456;13.634;2022-08-07T19:55:28;101026.22;;;21.17;67.48
25156;BME280;21913;52.456;13.634;2022-08-07T20:00:30;101027.97;;;21.17;67.39
25156;BME280;21913;52.456;13.634;2022-08-07T20:05:33;101025.34;;;21.17;67.32
25156;BME280;21913;52.456;13.634;2022-08-07T20:10:35;101033.25;;;21.17;67.46
25156;BME280;21913;52.456;13.634;2022-08-07T20:15:38;101029.75;;;21.16;67.38
25156;BME280;21913;52.456;13.634;2022-08-07T20:20:42;101034.16;;;21.16;67.52
25156;BME280;21913;52.456;13.634;2022-08-07T20:25:44;101030.66;;;21.15;67.38
25156;BME280;21913;52.456;13.634;2022-08-07T20:30:45;101027.16;;;21.15;67.58
25156;BME280;21913;52.456;13.634;2022-08-07T20:35:47;101022.78;;;21.15;67.55
25156;BME280;21913;52.456;13.634;2022-08-07T20:40:49;101032.41;;;21.15;67.38
25156;BME280;21913;52.456;13.634;2022-08-07T20:45:55;101033.31;;;21.15;67.26
25156;BME280;21913;52.456;13.634;2022-08-07T20:51:00;101031.53;;;21.14;67.64
25156;BME280;21913;52.456;13.634;2022-08-07T20:56:03;101031.53;;;21.14;67.43
25156;BME280;21913;52.456;13.634;2022-08-07T21:01:11;101030.69;;;21.14;67.42
25156;BME280;21913;52.456;13.634;2022-08-07T21:06:15;101040.34;;;21.13;67.40
25156;BME280;21913;52.456;13.634;2022-08-07T21:11:18;101045.63;;;21.13;67.10
25156;BME280;21913;52.456;13.634;2022-08-07T21:16:29;101041.25;;;21.12;67.40
25156;BME280;21913;52.456;13.634;2022-08-07T21:21:33;101056.13;;;21.13;67.45
25156;BME280;21913;52.456;13.634;2022-08-07T21:31:42;101054.41;;;21.12;67.10
25156;BME280;21913;52.456;13.634;2022-08-07T21:36:47;101049.16;;;21.12;67.36
25156;BME280;21913;52.456;13.634;2022-08-07T21:41:58;101045.66;;;21.12;67.18
25156;BME280;21913;52.456;13.634;2022-08-07T21:47:11;101047.44;;;21.11;67.04
25156;BME280;21913;52.456;13.634;2022-08-07T22:02:25;101056.25;;;21.10;67.33
25156;BME280;21913;52.456;13.634;2022-08-07T22:07:31;101065.00;;;21.11;67.55
25156;BME280;21913;52.456;13.634;2022-08-07T22:17:39;101065.91;;;21.10;67.55
25156;BME280;21913;52.456;13.634;2022-08-07T22:22:46;101058.00;;;21.10;67.44
25156;BME280;21913;52.456;13.634;2022-08-07T22:27:52;101055.38;;;21.10;67.46
25156;BME280;21913;52.456;13.634;2022-08-07T22:33:01;101060.66;;;21.10;67.78
25156;BME280;21913;52.456;13.634;2022-08-07T22:43:09;101057.13;;;21.09;67.88
25156;BME280;21913;52.456;13.634;2022-08-07T22:48:14;101059.75;;;21.09;67.93
25156;BME280;21913;52.456;13.634;2022-08-07T23:08:47;101071.19;;;21.08;67.89
25156;BME280;21913;52.456;13.634;2022-08-07T23:13:55;101068.59;;;21.07;67.98
25156;BME280;21913;52.456;13.634;2022-08-07T23:29:31;101068.59;;;21.07;67.88
25156;BME280;21913;52.456;13.634;2022-08-07T23:35:25;101071.25;;;21.07;67.65
25156;BME280;21913;52.456;13.634;2022-08-07T23:45:24;101064.22;;;21.07;67.65
25156;BME280;21913;52.456;13.634;2022-08-07T23:55:51;101078.31;;;21.05;68.03
